Time;durP1;ratioP1;P1;durP2;ratioP2;P2;SDS_P1;SDS_P2;PMS_P1;PMS_P2;Temp;Humidity;BMP_temperature;BMP_pressure;BME280_temperature;BME280_humidity;BME280_pressure;Samples;Min_cycle;Max_cycle;Signal;HPM_P1;HPM_P2
2021/05/30 00:00:42;;;;;;;26.50;16.80;;;13.90;99.90;;;;;;4134511;28;20326;-92
2021/05/30 00:02:43;;;;;;;25.47;15.90;;;13.70;99.90;;;;;;4150747;28;20185;-92
2021/05/30 00:04:44;;;;;;;26.97;14.77;;;13.50;99.90;;;;;;4150868;28;20177;-92
2021/05/30 00:06:46;;;;;;;23.33;15.23;;;13.50;99.90;;;;;;4150894;28;20180;-92
2021/05/30 00:08:47;;;;;;;24.27;15.50;;;13.30;99.90;;;;;;4150808;28;20211;-93
2021/05/30 00:10:49;;;;;;;25.02;16.10;;;13.20;99.90;;;;;;4150549;28;20173;-94
2021/05/30 00:12:50;;;;;;;28.00;16.30;;;13.40;99.90;;;;;;4134329;28;20181;-92
2021/05/30 00:14:50;;;;;;;25.02;16.50;;;13.70;99.90;;;;;;4150682;28;20881;-92
2021/05/30 00:16:51;;;;;;;24.60;16.40;;;13.80;99.90;;;;;;4150553;28;20553;-92
2021/05/30 00:18:52;;;;;;;26.10;15.20;;;13.90;99.90;;;;;;4134376;28;20228;-94
2021/05/30 00:20:53;;;;;;;27.60;16.73;;;13.80;99.90;;;;;;4134206;28;20209;-93
2021/05/30 00:22:54;;;;;;;26.23;16.20;;;13.80;99.90;;;;;;4134305;28;20197;-92
2021/05/30 00:24:57;;;;;;;27.23;16.70;;;13.80;99.90;;;;;;4134449;28;20174;-92
2021/05/30 00:26:58;;;;;;;27.67;16.70;;;13.90;99.90;;;;;;4134280;28;20260;-93
2021/05/30 00:28:59;;;;;;;25.50;16.10;;;13.90;99.90;;;;;;4134420;28;20181;-93
2021/05/30 00:30:59;;;;;;;28.03;17.40;;;13.70;99.90;;;;;;4134009;28;20248;-91
2021/05/30 00:33:00;;;;;;;28.37;15.77;;;13.80;99.90;;;;;;4134220;28;20573;-93
2021/05/30 00:35:01;;;;;;;28.37;15.93;;;13.50;99.90;;;;;;4150537;28;20758;-93
2021/05/30 00:37:02;;;;;;;27.37;16.50;;;13.60;99.90;;;;;;4150402;28;20181;-92
2021/05/30 00:39:04;;;;;;;25.20;16.90;;;13.50;99.90;;;;;;4150356;28;20173;-92
2021/05/30 00:41:05;;;;;;;26.73;16.37;;;13.40;99.90;;;;;;4133799;28;20201;-92
2021/05/30 00:43:05;;;;;;;26.57;16.43;;;13.40;99.90;;;;;;4149872;28;20537;-93
2021/05/30 00:45:10;;;;;;;26.47;16.27;;;13.30;99.90;;;;;;4150086;28;20176;-93
2021/05/30 00:47:10;;;;;;;25.67;15.53;;;13.20;99.90;;;;;;4133835;28;20181;-91
2021/05/30 00:49:11;;;;;;;27.50;17.07;;;13.10;99.90;;;;;;4133809;28;20705;-93
2021/05/30 00:51:13;;;;;;;28.70;17.23;;;13.10;99.90;;;;;;4134008;28;20189;-91
2021/05/30 00:53:18;;;;;;;30.67;17.70;;;13.20;99.90;;;;;;4133949;28;20181;-92
2021/05/30 00:55:21;;;;;;;29.07;17.67;;;13.30;99.90;;;;;;4133773;28;20170;-92
2021/05/30 00:57:22;;;;;;;30.27;17.77;;;13.40;99.90;;;;;;4150254;28;20188;-93
2021/05/30 00:59:23;;;;;;;30.10;18.43;;;13.40;99.90;;;;;;4133883;28;20178;-91
2021/05/30 01:01:23;;;;;;;32.37;17.60;;;13.30;99.90;;;;;;4133745;28;20216;-91
2021/05/30 01:03:24;;;;;;;33.07;18.83;;;13.20;99.90;;;;;;4133846;28;20189;-91
2021/05/30 01:05:25;;;;;;;27.67;17.50;;;13.10;99.90;;;;;;4133673;28;20181;-93
2021/05/30 01:07:26;;;;;;;33.40;18.43;;;13.00;99.90;;;;;;4133694;28;20232;-94
2021/05/30 01:09:27;;;;;;;27.50;18.27;;;13.10;99.90;;;;;;4149845;28;20196;-93
2021/05/30 01:11:28;;;;;;;31.23;17.97;;;12.80;99.90;;;;;;4133225;28;20193;-93
2021/05/30 01:13:29;;;;;;;27.87;17.63;;;12.80;99.90;;;;;;4133337;28;20236;-93
2021/05/30 01:15:32;;;;;;;32.30;18.80;;;12.80;99.90;;;;;;4133576;28;20225;-92
2021/05/30 01:17:33;;;;;;;30.37;17.47;;;12.90;99.90;;;;;;4149670;28;20173;-94
2021/05/30 01:19:36;;;;;;;31.60;18.67;;;12.80;99.90;;;;;;4133607;28;20173;-92
2021/05/30 01:21:37;;;;;;;30.47;18.90;;;12.70;99.90;;;;;;4133275;28;20256;-93
2021/05/30 01:23:38;;;;;;;25.60;16.43;;;12.70;99.90;;;;;;4149261;28;20636;-93
2021/05/30 01:25:39;;;;;;;30.13;18.77;;;12.50;99.90;;;;;;4133225;28;20605;-92
2021/05/30 01:27:40;;;;;;;33.43;18.90;;;12.50;99.90;;;;;;4133077;28;20173;-92
2021/05/30 01:29:41;;;;;;;31.93;19.97;;;12.60;99.90;;;;;;4133222;28;20185;-92
2021/05/30 01:31:42;;;;;;;27.30;17.90;;;12.70;99.90;;;;;;4133909;28;20292;-93
2021/05/30 01:33:43;;;;;;;32.03;19.73;;;12.70;99.90;;;;;;4133393;28;20190;-92
2021/05/30 01:35:44;;;;;;;31.53;19.87;;;12.90;99.90;;;;;;4132963;28;20173;-93
2021/05/30 01:37:46;;;;;;;34.27;19.77;;;13.10;99.90;;;;;;4132960;28;20174;-94
2021/05/30 01:39:46;;;;;;;32.23;20.03;;;13.00;99.90;;;;;;4133125;28;20332;-92
2021/05/30 01:41:47;;;;;;;31.73;19.57;;;13.10;99.90;;;;;;4149571;28;20192;-92
2021/05/30 01:43:48;;;;;;;34.67;20.50;;;12.90;99.90;;;;;;4149482;28;20176;-91
2021/05/30 01:45:49;;;;;;;34.33;19.63;;;13.00;99.90;;;;;;4133392;28;20609;-91
2021/05/30 01:47:50;;;;;;;32.47;19.93;;;12.60;99.90;;;;;;4133089;28;20181;-92
2021/05/30 01:49:51;;;;;;;31.13;18.83;;;12.40;99.90;;;;;;4133257;28;20181;-93
2021/05/30 01:51:51;;;;;;;32.10;19.43;;;12.50;99.90;;;;;;4133001;28;20273;-92
2021/05/30 01:54:03;;;;;;;37.13;20.77;;;12.40;99.90;;;;;;4132972;28;20198;-93
2021/05/30 01:58:05;;;;;;;37.97;22.23;;;12.70;99.90;;;;;;4149080;28;20652;-93
2021/05/30 02:00:06;;;;;;;36.03;22.20;;;12.80;99.90;;;;;;4148998;28;20204;-92
2021/05/30 02:02:13;;;;;;;39.77;23.13;;;12.80;99.90;;;;;;4149777;28;20559;-92
2021/05/30 02:04:14;;;;;;;40.17;21.87;;;12.80;99.90;;;;;;4148804;28;20212;-92
2021/05/30 02:06:16;;;;;;;38.93;23.80;;;12.80;99.90;;;;;;4132935;28;20262;-93
2021/05/30 02:08:17;;;;;;;39.77;24.83;;;12.80;99.90;;;;;;4132100;28;20608;-93
2021/05/30 02:10:19;;;;;;;38.37;24.77;;;12.70;99.90;;;;;;4148990;28;20267;-92
2021/05/30 02:12:21;;;;;;;41.33;23.57;;;12.60;99.90;;;;;;4132346;28;20198;-92
2021/05/30 02:14:22;;;;;;;40.23;24.83;;;12.50;99.90;;;;;;4132400;28;20184;-92
2021/05/30 02:16:23;;;;;;;36.67;23.90;;;12.40;99.90;;;;;;4148973;28;20173;-92
2021/05/30 02:18:24;;;;;;;43.90;24.87;;;12.40;99.90;;;;;;4148950;28;20212;-92
2021/05/30 02:20:41;;;;;;;41.63;25.37;;;12.40;99.90;;;;;;4148907;28;20287;-94
2021/05/30 02:22:41;;;;;;;46.43;25.30;;;12.40;99.90;;;;;;4132346;28;20177;-92
2021/05/30 02:24:45;;;;;;;46.23;25.97;;;12.30;99.90;;;;;;4132653;28;20261;-92
2021/05/30 02:26:47;;;;;;;43.87;25.63;;;12.20;99.90;;;;;;4132692;28;20177;-91
2021/05/30 02:28:47;;;;;;;43.87;26.67;;;12.20;99.90;;;;;;4132362;28;20534;-92
2021/05/30 02:30:48;;;;;;;43.17;24.73;;;12.20;99.90;;;;;;4148868;28;20181;-91
2021/05/30 02:32:50;;;;;;;52.27;26.93;;;12.10;99.90;;;;;;4148585;28;20193;-91
2021/05/30 02:34:51;;;;;;;45.40;26.70;;;12.20;99.90;;;;;;4149061;28;20577;-92
2021/05/30 02:36:51;;;;;;;51.13;27.33;;;12.20;99.90;;;;;;4148291;28;20184;-92
2021/05/30 02:38:52;;;;;;;42.27;26.10;;;12.10;99.90;;;;;;4132411;28;20172;-92
2021/05/30 02:40:53;;;;;;;48.30;28.10;;;12.00;99.90;;;;;;4148324;28;20204;-93
2021/05/30 02:42:54;;;;;;;50.57;27.57;;;12.00;99.90;;;;;;4132295;28;20193;-91
2021/05/30 02:44:55;;;;;;;46.47;26.27;;;11.90;99.90;;;;;;4132394;28;20608;-91
2021/05/30 02:46:56;;;;;;;46.37;27.47;;;11.90;99.90;;;;;;4132253;28;20700;-91
2021/05/30 02:48:57;;;;;;;51.67;28.40;;;11.90;99.90;;;;;;4132695;28;20177;-93
2021/05/30 02:50:59;;;;;;;45.37;27.47;;;11.90;99.90;;;;;;4131754;28;20224;-91
2021/05/30 02:52:59;;;;;;;47.67;26.43;;;11.90;99.90;;;;;;4132041;28;20189;-92
2021/05/30 02:55:00;;;;;;;51.70;29.40;;;11.90;99.90;;;;;;4148433;28;20248;-92
2021/05/30 02:57:01;;;;;;;50.87;26.63;;;11.80;99.90;;;;;;4132237;28;20200;-94
2021/05/30 02:59:02;;;;;;;50.27;27.90;;;11.80;99.90;;;;;;4148445;28;20200;-92
2021/05/30 03:01:02;;;;;;;49.83;27.33;;;11.90;99.90;;;;;;4132195;28;20216;-92
2021/05/30 03:03:03;;;;;;;50.57;27.37;;;11.90;99.90;;;;;;4132282;28;20213;-93
2021/05/30 03:05:05;;;;;;;54.50;28.10;;;11.90;99.90;;;;;;4132241;28;20232;-93
2021/05/30 03:07:06;;;;;;;52.13;27.57;;;11.90;99.90;;;;;;4132253;28;20170;-91
2021/05/30 03:09:07;;;;;;;47.03;26.17;;;11.90;99.90;;;;;;4148404;28;20523;-93
2021/05/30 03:11:08;;;;;;;49.53;28.13;;;11.90;99.90;;;;;;4148448;28;20712;-92
2021/05/30 03:13:10;;;;;;;50.27;28.03;;;11.90;99.90;;;;;;4148673;28;20259;-92
2021/05/30 03:15:11;;;;;;;53.47;28.70;;;11.90;99.90;;;;;;4147927;28;20176;-91
2021/05/30 03:17:11;;;;;;;44.47;27.13;;;11.90;99.90;;;;;;4131769;28;20245;-92
2021/05/30 03:19:12;;;;;;;48.27;28.00;;;11.80;99.90;;;;;;4133276;28;20186;-92
2021/05/30 03:21:14;;;;;;;51.23;28.10;;;11.90;99.90;;;;;;4135121;28;20223;-92
2021/05/30 03:23:15;;;;;;;48.37;27.80;;;12.00;99.90;;;;;;4135214;28;20173;-93
2021/05/30 03:25:16;;;;;;;49.47;28.13;;;12.00;99.90;;;;;;4151161;28;20181;-92
2021/05/30 03:27:17;;;;;;;48.70;27.87;;;12.00;99.90;;;;;;4135015;28;20642;-92
2021/05/30 03:29:18;;;;;;;43.97;26.60;;;11.90;99.90;;;;;;4151201;28;20177;-93
2021/05/30 03:31:18;;;;;;;44.13;26.53;;;12.00;99.90;;;;;;4151163;28;20195;-92
2021/05/30 03:33:19;;;;;;;45.87;28.30;;;12.00;99.90;;;;;;4135263;28;20181;-92
2021/05/30 03:35:20;;;;;;;44.60;26.23;;;12.00;99.90;;;;;;4135024;28;20174;-92
2021/05/30 03:37:21;;;;;;;45.47;26.83;;;12.10;99.90;;;;;;4134951;28;20257;-92
2021/05/30 03:39:24;;;;;;;49.20;27.47;;;12.00;99.90;;;;;;4135046;28;20193;-92
2021/05/30 03:41:30;;;;;;;45.70;25.87;;;11.90;99.90;;;;;;4134631;28;20656;-92
2021/05/30 03:43:32;;;;;;;52.07;29.07;;;11.90;99.90;;;;;;4134835;28;20628;-92
2021/05/30 03:45:33;;;;;;;46.90;27.87;;;11.90;99.90;;;;;;4134807;28;20185;-94
2021/05/30 03:47:33;;;;;;;47.43;27.60;;;12.00;99.90;;;;;;4134870;28;20173;-91
2021/05/30 03:49:34;;;;;;;50.03;28.43;;;12.00;99.90;;;;;;4134855;28;20557;-92
2021/05/30 03:51:35;;;;;;;50.47;27.87;;;12.10;99.90;;;;;;4150997;28;20189;-92
2021/05/30 03:53:36;;;;;;;50.60;28.63;;;12.00;99.90;;;;;;4134808;28;20212;-93
2021/05/30 03:55:36;;;;;;;46.43;26.33;;;12.00;99.90;;;;;;4134566;28;20181;-92
2021/05/30 03:57:38;;;;;;;52.13;28.33;;;11.90;99.90;;;;;;4134724;28;20165;-93
2021/05/30 03:59:39;;;;;;;52.47;29.13;;;11.80;99.90;;;;;;4150761;28;20179;-91
2021/05/30 04:01:40;;;;;;;51.90;28.50;;;11.80;99.90;;;;;;4134420;28;20673;-92
2021/05/30 04:03:41;;;;;;;47.03;28.13;;;11.80;99.90;;;;;;4134762;28;20185;-92
2021/05/30 04:05:42;;;;;;;48.77;29.33;;;11.80;99.90;;;;;;4150806;28;20659;-92
2021/05/30 04:07:44;;;;;;;46.57;28.70;;;11.80;99.90;;;;;;4134457;28;20185;-92
2021/05/30 04:09:45;;;;;;;51.57;28.00;;;11.80;99.90;;;;;;4150868;28;20276;-92
2021/05/30 04:11:45;;;;;;;47.63;27.73;;;11.70;99.90;;;;;;4150737;28;20184;-92
2021/05/30 04:13:47;;;;;;;52.00;28.10;;;11.70;99.90;;;;;;4134286;28;20213;-92
2021/05/30 04:15:47;;;;;;;52.50;28.47;;;11.60;99.90;;;;;;4134619;28;20178;-92
2021/05/30 04:17:48;;;;;;;50.20;28.47;;;11.60;99.90;;;;;;4134761;28;20660;-93
2021/05/30 04:19:49;;;;;;;50.70;28.33;;;11.80;99.90;;;;;;4150436;28;20173;-92
2021/05/30 04:21:50;;;;;;;49.17;27.70;;;11.90;99.90;;;;;;4134485;28;20201;-92
2021/05/30 04:23:51;;;;;;;53.50;28.70;;;11.90;99.90;;;;;;4134357;28;20173;-92
2021/05/30 04:25:52;;;;;;;52.03;27.47;;;11.90;99.90;;;;;;4150468;28;20185;-92
2021/05/30 04:27:53;;;;;;;51.87;28.17;;;11.80;99.90;;;;;;4134272;28;20577;-93
2021/05/30 04:29:53;;;;;;;48.97;28.33;;;11.70;99.90;;;;;;4150962;28;20253;-93
2021/05/30 04:31:54;;;;;;;53.03;28.37;;;11.70;99.90;;;;;;4133444;28;20212;-92
2021/05/30 04:33:55;;;;;;;60.87;31.67;;;11.60;99.90;;;;;;4134338;28;20212;-92
2021/05/30 04:35:56;;;;;;;52.07;30.77;;;11.50;99.90;;;;;;4134342;28;20200;-91
2021/05/30 04:37:56;;;;;;;55.10;30.63;;;11.40;99.90;;;;;;4134023;28;20184;-92
2021/05/30 04:39:57;;;;;;;52.83;30.00;;;11.40;99.90;;;;;;4134117;28;20178;-91
2021/05/30 04:41:59;;;;;;;55.20;29.93;;;11.40;99.90;;;;;;4134052;28;20232;-92
2021/05/30 04:44:00;;;;;;;54.87;29.90;;;11.40;99.90;;;;;;4133765;28;20548;-91
2021/05/30 04:46:02;;;;;;;53.00;30.50;;;11.30;99.90;;;;;;4150282;28;20173;-92
2021/05/30 04:48:03;;;;;;;54.57;29.83;;;11.30;99.90;;;;;;4150153;28;20296;-92
2021/05/30 04:50:04;;;;;;;52.30;31.37;;;11.40;99.90;;;;;;4133913;28;20178;-92
2021/05/30 04:52:07;;;;;;;53.90;30.87;;;11.40;99.90;;;;;;4150065;28;20282;-92
2021/05/30 04:54:08;;;;;;;55.23;31.10;;;11.30;99.90;;;;;;4150302;28;20180;-93
2021/05/30 04:56:11;;;;;;;52.97;31.03;;;11.40;99.90;;;;;;4150033;28;20207;-93
2021/05/30 04:58:11;;;;;;;49.60;29.17;;;11.40;99.90;;;;;;4133777;28;20178;-93
2021/05/30 05:00:15;;;;;;;55.53;30.60;;;11.40;99.90;;;;;;4149821;28;20196;-91
2021/05/30 05:02:15;;;;;;;49.77;29.97;;;11.50;99.90;;;;;;4133658;28;20653;-93
2021/05/30 05:04:17;;;;;;;54.27;30.07;;;11.50;99.90;;;;;;4150056;28;20175;-91
2021/05/30 05:06:17;;;;;;;53.57;29.50;;;11.60;99.90;;;;;;4133830;28;20586;-93
2021/05/30 05:08:19;;;;;;;52.17;30.73;;;11.70;99.90;;;;;;4149717;28;20184;-93
2021/05/30 05:10:20;;;;;;;52.83;30.37;;;11.70;99.90;;;;;;4149939;28;20264;-94
2021/05/30 05:12:21;;;;;;;59.33;31.80;;;11.80;99.90;;;;;;4149617;28;20239;-93
2021/05/30 05:14:22;;;;;;;48.33;28.13;;;11.70;99.90;;;;;;4133492;28;20170;-91
2021/05/30 05:16:22;;;;;;;45.23;29.10;;;11.70;99.90;;;;;;4149711;28;20184;-92
2021/05/30 05:18:25;;;;;;;52.50;30.07;;;11.40;99.90;;;;;;4133300;28;20209;-90
2021/05/30 05:20:25;;;;;;;49.77;29.30;;;11.60;99.90;;;;;;4149456;28;20213;-92
2021/05/30 05:22:26;;;;;;;55.60;32.30;;;11.70;99.90;;;;;;4149341;28;20535;-92
2021/05/30 05:24:27;;;;;;;56.10;30.47;;;11.80;99.90;;;;;;4133592;28;20188;-91
2021/05/30 05:26:28;;;;;;;48.03;29.73;;;11.80;99.90;;;;;;4149701;28;20311;-93
2021/05/30 05:28:30;;;;;;;51.37;30.87;;;11.80;99.90;;;;;;4149873;28;20181;-91
2021/05/30 05:30:32;;;;;;;52.77;29.07;;;11.80;99.90;;;;;;4149535;28;20233;-91
2021/05/30 05:32:33;;;;;;;46.60;28.70;;;11.90;99.90;;;;;;4133257;28;20236;-92
2021/05/30 05:34:33;;;;;;;50.97;29.40;;;12.10;99.90;;;;;;4149458;28;20177;-92
2021/05/30 05:36:34;;;;;;;47.67;30.23;;;12.30;99.90;;;;;;4149378;28;20212;-92
2021/05/30 05:38:35;;;;;;;54.40;32.10;;;12.30;99.90;;;;;;4133278;28;20169;-91
2021/05/30 05:40:36;;;;;;;50.27;30.60;;;12.40;99.90;;;;;;4149236;28;20208;-91
2021/05/30 05:42:38;;;;;;;49.57;30.80;;;12.40;99.90;;;;;;4148094;28;20231;-92
2021/05/30 05:44:38;;;;;;;57.00;31.77;;;12.40;99.90;;;;;;4132964;28;20673;-92
2021/05/30 05:46:39;;;;;;;49.77;31.53;;;12.60;99.90;;;;;;4149415;28;20177;-92
2021/05/30 05:48:40;;;;;;;48.43;30.93;;;12.50;99.90;;;;;;4133159;28;20174;-91
2021/05/30 05:50:42;;;;;;;55.23;31.33;;;12.50;99.90;;;;;;4149570;28;20177;-92
2021/05/30 05:52:44;;;;;;;48.40;31.93;;;12.30;99.90;;;;;;4133146;28;20177;-93
2021/05/30 05:54:45;;;;;;;53.33;32.50;;;12.20;99.90;;;;;;4133122;28;20275;-92
2021/05/30 05:56:45;;;;;;;51.93;32.83;;;12.30;99.90;;;;;;4149129;28;20565;-93
2021/05/30 05:58:46;;;;;;;50.43;31.73;;;12.40;99.90;;;;;;4148950;28;20169;-92
2021/05/30 06:00:47;;;;;;;49.43;31.60;;;12.50;99.90;;;;;;4148959;28;20291;-91
2021/05/30 06:02:51;;;;;;;49.27;32.63;;;12.60;99.90;;;;;;4149092;28;20172;-92
2021/05/30 06:04:52;;;;;;;46.77;31.47;;;12.60;99.90;;;;;;4148906;28;20631;-93
2021/05/30 06:06:53;;;;;;;52.77;32.03;;;12.50;99.90;;;;;;4149021;28;20207;-93
2021/05/30 06:08:53;;;;;;;49.03;31.00;;;12.70;99.90;;;;;;4132773;28;20174;-92
2021/05/30 06:10:54;;;;;;;48.03;30.83;;;12.70;99.90;;;;;;4132543;28;20712;-93
2021/05/30 06:13:00;;;;;;;52.40;32.67;;;12.60;99.90;;;;;;4148609;28;20169;-92
2021/05/30 06:15:01;;;;;;;49.63;32.77;;;12.50;99.90;;;;;;4149048;28;20181;-92
2021/05/30 06:17:03;;;;;;;47.17;32.17;;;12.40;99.90;;;;;;4148807;28;20195;-90
2021/05/30 06:19:03;;;;;;;54.40;33.87;;;12.40;99.90;;;;;;4132533;28;20220;-91
2021/05/30 06:21:04;;;;;;;53.67;33.83;;;12.50;99.90;;;;;;4148498;28;20216;-92
2021/05/30 06:23:06;;;;;;;50.37;31.23;;;12.70;99.90;;;;;;4132358;28;20170;-92
2021/05/30 06:25:07;;;;;;;51.97;32.07;;;12.80;99.90;;;;;;4148829;28;20240;-93
2021/05/30 06:27:07;;;;;;;50.07;31.90;;;12.90;99.90;;;;;;4132346;28;20375;-93
2021/05/30 06:29:08;;;;;;;47.77;31.20;;;12.80;99.90;;;;;;4132245;28;20209;-93
2021/05/30 06:31:09;;;;;;;48.23;30.57;;;12.90;99.90;;;;;;4148448;28;20216;-92
2021/05/30 06:33:10;;;;;;;51.07;32.37;;;12.80;99.90;;;;;;4132586;28;20173;-92
2021/05/30 06:35:11;;;;;;;42.43;29.77;;;12.90;99.90;;;;;;4132417;28;20169;-93
2021/05/30 06:37:12;;;;;;;46.60;31.77;;;13.10;99.90;;;;;;4132435;28;20692;-91
2021/05/30 06:39:13;;;;;;;46.00;30.07;;;13.30;99.90;;;;;;4148499;28;20173;-91
2021/05/30 06:41:13;;;;;;;44.60;30.27;;;13.30;99.90;;;;;;4148380;28;20220;-93
2021/05/30 06:43:15;;;;;;;42.27;29.13;;;13.30;99.90;;;;;;4132259;28;20181;-92
2021/05/30 06:45:16;;;;;;;42.37;27.97;;;13.40;99.90;;;;;;4132297;28;20188;-93
2021/05/30 06:47:16;;;;;;;43.47;30.83;;;13.40;99.90;;;;;;4132526;28;20242;-91
2021/05/30 06:49:17;;;;;;;44.60;29.63;;;13.40;99.90;;;;;;4132103;28;20181;-92
2021/05/30 06:51:20;;;;;;;43.03;29.90;;;13.40;99.90;;;;;;4132099;28;20189;-92
2021/05/30 06:53:20;;;;;;;43.03;29.57;;;13.40;99.90;;;;;;4131949;28;20613;-93
2021/05/30 06:55:23;;;;;;;40.13;28.60;;;13.50;99.90;;;;;;4132101;28;20300;-93
2021/05/30 06:57:23;;;;;;;40.30;28.00;;;13.70;99.90;;;;;;4132387;28;20180;-93
2021/05/30 06:59:24;;;;;;;38.17;27.43;;;13.80;99.90;;;;;;4148300;28;20168;-92
2021/05/30 07:01:25;;;;;;;38.73;27.50;;;13.80;99.90;;;;;;4131947;28;20217;-92
2021/05/30 07:03:26;;;;;;;41.73;27.80;;;13.80;99.90;;;;;;4132190;28;20173;-92
2021/05/30 07:05:27;;;;;;;41.67;27.63;;;14.00;99.90;;;;;;4131967;28;20193;-92
2021/05/30 07:07:27;;;;;;;36.50;25.43;;;14.10;99.90;;;;;;4132129;28;20709;-92
2021/05/30 07:09:28;;;;;;;31.10;24.07;;;14.10;99.90;;;;;;4131867;28;20178;-92
2021/05/30 07:11:29;;;;;;;32.65;22.48;;;14.90;99.90;;;;;;4148059;28;20192;-93
2021/05/30 07:13:30;;;;;;;28.73;22.67;;;16.30;99.90;;;;;;4148218;28;20169;-92
2021/05/30 07:15:30;;;;;;;28.92;22.08;;;17.90;99.90;;;;;;4132044;28;20178;-93
2021/05/30 07:17:31;;;;;;;27.63;20.52;;;19.00;99.90;;;;;;4132285;28;20252;-93
2021/05/30 07:19:32;;;;;;;22.08;18.90;;;19.50;99.90;;;;;;4148392;28;20231;-93
2021/05/30 07:21:33;;;;;;;27.77;20.95;;;20.20;99.90;;;;;;4147902;28;20739;-92
2021/05/30 07:23:35;;;;;;;24.33;19.25;;;20.50;99.90;;;;;;4132082;28;20615;-94
2021/05/30 07:25:37;;;;;;;28.85;20.35;;;20.90;99.90;;;;;;4131807;28;20178;-93
2021/05/30 07:27:39;;;;;;;22.17;18.48;;;20.90;99.90;;;;;;4147920;28;20169;-93
2021/05/30 07:29:39;;;;;;;26.55;21.15;;;21.00;99.90;;;;;;4131638;28;20170;-93
2021/05/30 07:31:40;;;;;;;24.25;19.48;;;20.90;99.90;;;;;;4132118;28;20213;-92
2021/05/30 07:33:41;;;;;;;23.92;18.85;;;21.30;99.90;;;;;;4147868;28;20680;-93
2021/05/30 07:35:42;;;;;;;26.90;20.50;;;21.90;99.90;;;;;;4131711;28;20232;-93
2021/05/30 07:37:42;;;;;;;28.92;19.10;;;22.30;99.90;;;;;;4147863;28;20173;-94
2021/05/30 07:39:43;;;;;;;24.90;19.15;;;21.90;99.90;;;;;;4131658;28;20170;-92
2021/05/30 07:41:44;;;;;;;24.30;19.58;;;21.80;99.90;;;;;;4131708;28;20248;-92
2021/05/30 07:43:45;;;;;;;22.05;18.13;;;21.70;99.90;;;;;;4131853;28;20162;-92
2021/05/30 07:45:46;;;;;;;23.35;17.58;;;21.40;99.90;;;;;;4131908;28;20212;-94
2021/05/30 07:47:47;;;;;;;24.42;18.98;;;21.20;99.90;;;;;;4131758;28;20165;-92
2021/05/30 07:49:48;;;;;;;24.75;19.02;;;21.30;99.90;;;;;;4132156;28;20182;-92
2021/05/30 07:51:49;;;;;;;26.58;18.50;;;21.50;99.90;;;;;;4147837;28;20197;-95
2021/05/30 07:53:49;;;;;;;24.27;17.38;;;22.30;99.90;;;;;;4132141;28;20265;-91
2021/05/30 07:55:50;;;;;;;22.35;17.80;;;22.50;99.90;;;;;;4147783;28;20181;-92
2021/05/30 07:57:51;;;;;;;22.80;18.02;;;22.60;99.90;;;;;;4131544;28;20273;-93
2021/05/30 07:59:52;;;;;;;29.08;19.20;;;22.10;99.90;;;;;;4131795;28;20626;-94
2021/05/30 08:01:53;;;;;;;21.98;18.20;;;22.00;99.90;;;;;;4131520;28;20663;-93
2021/05/30 08:03:53;;;;;;;22.35;17.77;;;22.20;99.90;;;;;;4131652;28;20258;-91
2021/05/30 08:05:55;;;;;;;21.90;17.30;;;22.30;99.90;;;;;;4132281;28;20173;-94
2021/05/30 08:07:56;;;;;;;19.77;16.85;;;22.30;99.90;;;;;;4150929;28;20173;-93
2021/05/30 08:09:56;;;;;;;22.17;17.48;;;22.10;99.90;;;;;;4134615;28;20181;-93
2021/05/30 08:11:58;;;;;;;24.33;17.65;;;22.30;99.90;;;;;;4134795;28;20292;-92
2021/05/30 08:13:59;;;;;;;22.27;17.42;;;22.40;99.90;;;;;;4134514;28;20178;-92
2021/05/30 08:16:00;;;;;;;21.48;16.92;;;22.60;99.90;;;;;;4134339;28;20622;-92
2021/05/30 08:18:00;;;;;;;21.70;17.83;;;22.40;99.90;;;;;;4150558;28;20180;-91
2021/05/30 08:20:04;;;;;;;22.27;17.92;;;22.60;99.90;;;;;;4134367;28;20178;-92
2021/05/30 08:22:05;;;;;;;22.60;17.42;;;22.70;99.90;;;;;;4134355;28;20252;-94
2021/05/30 08:24:06;;;;;;;22.00;16.85;;;22.50;99.90;;;;;;4134269;28;20177;-92
2021/05/30 08:26:08;;;;;;;19.90;15.95;;;23.10;99.90;;;;;;4150403;28;20179;-93
2021/05/30 08:28:10;;;;;;;21.55;16.52;;;22.70;99.90;;;;;;4134047;28;20170;-92
2021/05/30 08:30:12;;;;;;;17.98;15.63;;;22.60;99.90;;;;;;4134059;28;20169;-92
2021/05/30 08:32:14;;;;;;;20.98;15.80;;;22.50;99.90;;;;;;4133997;28;20211;-92
2021/05/30 08:34:16;;;;;;;22.25;17.45;;;23.10;99.90;;;;;;4134487;28;20169;-92
2021/05/30 08:36:17;;;;;;;20.90;16.70;;;23.30;99.90;;;;;;4134447;28;20265;-94
2021/05/30 08:38:17;;;;;;;21.38;14.80;;;23.10;99.90;;;;;;4134284;28;20205;-94
2021/05/30 08:40:18;;;;;;;15.77;13.98;;;22.80;99.90;;;;;;4134048;28;20255;-93
2021/05/30 08:42:21;;;;;;;21.05;15.70;;;23.10;99.90;;;;;;4150248;28;20700;-93
2021/05/30 08:44:21;;;;;;;18.77;14.82;;;23.10;99.90;;;;;;4134045;28;20224;-95
2021/05/30 08:46:22;;;;;;;21.42;16.15;;;23.30;99.90;;;;;;4150209;28;20391;-92
2021/05/30 08:48:23;;;;;;;17.30;14.63;;;23.50;99.90;;;;;;4151442;28;20181;-92
2021/05/30 08:50:24;;;;;;;17.15;12.77;;;23.70;99.90;;;;;;4134166;28;20190;-92
2021/05/30 08:52:25;;;;;;;18.02;13.05;;;23.20;99.90;;;;;;4133783;28;20193;-93
2021/05/30 08:54:30;;;;;;;15.32;12.48;;;22.60;99.90;;;;;;4133810;28;20698;-92
2021/05/30 08:56:30;;;;;;;16.65;12.75;;;22.80;99.90;;;;;;4150366;28;20315;-93
2021/05/30 08:58:43;;;;;;;16.67;12.50;;;22.80;99.90;;;;;;4150146;28;20165;-90
2021/05/30 09:00:43;;;;;;;20.05;13.90;;;23.30;99.90;;;;;;4150147;28;20216;-91
2021/05/30 09:02:44;;;;;;;17.17;14.05;;;24.20;99.90;;;;;;4151133;28;20181;-89
2021/05/30 09:04:56;;;;;;;17.02;14.63;;;24.10;99.90;;;;;;4134180;28;20636;-89
2021/05/30 09:06:57;;;;;;;16.23;13.80;;;24.50;99.90;;;;;;4149832;28;20640;-90
2021/05/30 09:08:58;;;;;;;19.30;13.02;;;24.20;99.90;;;;;;4133478;28;20166;-89
2021/05/30 09:10:59;;;;;;;20.17;13.18;;;24.00;99.90;;;;;;4149820;28;20224;-94
2021/05/30 09:13:17;;;;;;;16.30;12.48;;;23.50;99.90;;;;;;4149859;28;20208;-93
2021/05/30 09:15:23;;;;;;;19.95;13.60;;;22.90;99.90;;;;;;4133515;28;20518;-93
2021/05/30 09:17:25;;;;;;;16.98;12.40;;;22.70;99.90;;;;;;4133093;28;20284;-93
2021/05/30 09:19:34;;;;;;;17.67;14.15;;;23.30;99.90;;;;;;4149523;28;20216;-93
2021/05/30 09:21:35;;;;;;;19.77;13.18;;;23.60;99.90;;;;;;4133382;28;20236;-91
2021/05/30 09:23:40;;;;;;;16.67;11.75;;;23.60;99.90;;;;;;4133409;28;20174;-92
2021/05/30 09:25:40;;;;;;;17.48;12.32;;;23.00;99.90;;;;;;4133369;28;20189;-92
2021/05/30 09:27:48;;;;;;;15.27;11.57;;;23.10;99.90;;;;;;4149601;28;20173;-93
2021/05/30 09:30:09;;;;;;;18.40;9.90;;;22.90;99.90;;;;;;4133159;28;20324;-94
2021/05/30 09:32:10;;;;;;;15.57;10.77;;;22.30;99.90;;;;;;4133637;28;20201;-92
2021/05/30 09:34:35;;;;;;;14.60;11.43;;;22.20;99.90;;;;;;4149638;28;20193;-92
2021/05/30 09:36:50;;;;;;;14.43;11.30;;;22.70;99.90;;;;;;4133261;28;20170;-92
2021/05/30 09:39:05;;;;;;;17.50;13.05;;;22.80;99.90;;;;;;4133050;28;20169;-93
2021/05/30 09:41:11;;;;;;;15.82;11.52;;;23.10;99.90;;;;;;4148990;28;20250;-93
2021/05/30 09:43:17;;;;;;;14.68;10.98;;;23.10;99.90;;;;;;4149130;28;20188;-94
2021/05/30 09:45:18;;;;;;;14.70;8.38;;;23.20;99.90;;;;;;4133189;28;20173;-93
2021/05/30 09:47:46;;;;;;;13.63;8.43;;;23.00;99.90;;;;;;4149557;28;20193;-94
2021/05/30 09:49:54;;;;;;;15.07;8.73;;;22.20;99.90;;;;;;4132155;28;20181;-90
2021/05/30 09:51:54;;;;;;;11.15;8.32;;;21.70;99.90;;;;;;4149354;28;20192;-91
2021/05/30 09:53:59;;;;;;;12.93;9.70;;;21.50;99.90;;;;;;4133331;28;20181;-91
2021/05/30 09:56:00;;;;;;;14.43;10.73;;;21.20;99.90;;;;;;4133012;28;20200;-92
2021/05/30 09:58:15;;;;;;;11.98;9.20;;;21.10;99.90;;;;;;4149150;28;20261;-93
2021/05/30 10:00:22;;;;;;;16.02;9.82;;;21.40;99.90;;;;;;4132865;28;20169;-93
2021/05/30 10:02:22;;;;;;;13.88;9.90;;;22.00;99.90;;;;;;4148877;28;20204;-91
2021/05/30 10:04:29;;;;;;;13.15;9.30;;;22.50;99.90;;;;;;4149226;28;20556;-92
2021/05/30 10:06:31;;;;;;;14.00;9.57;;;22.40;99.90;;;;;;4132680;28;20182;-92
2021/05/30 10:08:34;;;;;;;12.05;8.35;;;22.50;99.90;;;;;;4148905;28;20177;-93
2021/05/30 10:10:34;;;;;;;12.18;8.63;;;22.20;99.90;;;;;;4132754;28;20177;-90
2021/05/30 10:12:35;;;;;;;11.10;6.50;;;21.60;99.90;;;;;;4148840;28;20193;-92
2021/05/30 10:14:37;;;;;;;11.95;9.52;;;21.30;99.90;;;;;;4132654;28;20170;-90
2021/05/30 10:16:38;;;;;;;14.20;8.73;;;21.30;99.90;;;;;;4132741;28;20265;-90
2021/05/30 10:18:45;;;;;;;11.77;9.15;;;21.30;99.90;;;;;;4132786;28;20228;-92
2021/05/30 10:20:47;;;;;;;15.98;9.27;;;21.20;99.90;;;;;;4133624;28;20272;-89